Stations météo

réclame
Mon MeteoGroup
Herwijnen aws, Pays-Bas (6356): Température de l'air & dewpoint: 13.07.2018 15:00:00 - 19.07.2018 15:00:00 (CEST)Herwijnen aws, Pays-Bas (6356): Température de l'air 5cm: 13.07.2018 15:00:00 - 19.07.2018 15:00:00 (CEST)Herwijnen aws, Pays-Bas (6356): Vitesse du vent & gusts: 13.07.2018 15:00:00 - 19.07.2018 15:00:00 (CEST)Herwijnen aws, Pays-Bas (6356): Direction du vent: 13.07.2018 15:00:00 - 19.07.2018 15:00:00 (CEST)Herwijnen aws, Pays-Bas (6356): reduced air pressure: 13.07.2018 15:00:00 - 19.07.2018 15:00:00 (CEST)Herwijnen aws, Pays-Bas (6356): Quantités de précipitations: 13.07.2018 15:00:00 - 19.07.2018 15:00:00 (CEST)
Date & Time tt [°C] td [°C] tt 5cm [°C] ff [km/h] ff [knt] fx [km/h] fx [knt] dd ppp [hPa] rr [mm]
19.07.2018 15:00:00 25,7 12,0 28,3 11 6 22 12 W 1018,1 0,0
19.07.2018 14:00:00 25,3 12,5 26,8 11 6 18 10 W 1018,3 0,0
19.07.2018 13:00:00 24,9 12,3 28,0 7 4 22 12 NNW 1018,5 0,0
19.07.2018 12:00:00 24,4 13,1 28,5 11 6 22 12 WNW 1018,6 0,0
19.07.2018 11:00:00 22,9 13,8 26,2 14 8 22 12 NW 1018,8 0,0
19.07.2018 10:00:00 20,9 14,6 22,4 11 6 18 10 NNW 1019,0 0,0
19.07.2018 09:00:00 18,4 16,1 18,4 7 4 11 6 WNW 1019,0 0,0
19.07.2018 08:00:00 15,9 15,4 16,0 4 2 7 4 NNW 1018,9 0,0
19.07.2018 07:00:00 13,7 13,5 12,7 4 2 11 6 WNW 1018,9 0,0
19.07.2018 06:00:00 12,5 12,3 9,7 4 2 11 6 NW 1018,6 0,0
19.07.2018 05:00:00 12,3 12,0 9,3 7 4 7 4 W 1018,8 0,0
19.07.2018 04:00:00 13,0 12,4 11,0 7 4 11 6 W 1018,8 0,0
19.07.2018 03:00:00 13,6 12,8 12,4 7 4 11 6 W 1018,9 0,0
19.07.2018 02:00:00 13,4 12,5 10,4 4 2 7 4 NW 1019,0 0,0
19.07.2018 01:00:00 14,3 12,4 11,9 4 2 11 6 NW 1019,1 0,0
19.07.2018 00:00:00 16,8 12,4 13,5 7 4 14 8 N 1019,2 0,0
18.07.2018 23:00:00 17,4 12,0 15,1 7 4 14 8 NW 1019,1 0,0
18.07.2018 22:00:00 18,4 12,1 17,0 7 4 14 8 NW 1018,8 0,0
18.07.2018 21:00:00 20,7 12,3 20,2 11 6 29 16 NW 1018,5 0,0
18.07.2018 20:00:00 22,3 12,3 22,7 18 10 32 18 NW 1018,3 0,0
18.07.2018 19:00:00 23,7 12,7 25,3 14 8 22 12 NW 1018,1 0,0
18.07.2018 18:00:00 24,4 10,8 26,1 4 2 11 6 SSW 1018,2 0,0
18.07.2018 17:00:00 24,7 11,0 28,8 7 4 14 8 N 1018,4 0,0
18.07.2018 16:00:00 23,9 11,0 26,0 7 4 18 10 NW 1018,5 0,0
18.07.2018 15:00:00 23,8 11,1 26,4 4 2 14 8 NW 1018,6 0,0
18.07.2018 14:00:00 23,1 11,2 26,4 11 6 22 12 W 1018,8 0,0
18.07.2018 13:00:00 23,3 11,6 26,5 7 4 25 14 SW 1019,0 0,0
18.07.2018 12:00:00 23,3 10,5 27,0 11 6 22 12 WSW 1018,9 0,0
18.07.2018 11:00:00 22,1 11,3 24,6 11 6 22 12 SW 1019,0 0,0
18.07.2018 10:00:00 21,3 11,6 23,9 11 6 18 10 SSW 1019,1 0,0
18.07.2018 09:00:00 19,8 11,9 21,0 11 6 14 8 SW 1018,9 0,0
18.07.2018 08:00:00 17,1 12,5 16,8 7 4 11 6 SW 1018,8 0,0
18.07.2018 07:00:00 14,4 12,6 13,2 7 4 11 6 SSW 1018,5 0,0
18.07.2018 06:00:00 11,6 11,3 8,6 4 2 7 4 SSW 1019,9 0,0
18.07.2018 05:00:00 12,0 11,8 8,8 4 2 7 4 S 1019,5 0,0
18.07.2018 04:00:00 12,0 11,8 9,6 4 2 7 4 SSE 1017,0 0,0
18.07.2018 03:00:00 12,1 11,7 8,3 4 2 4 2 S 1018,3 0,0
18.07.2018 02:00:00 12,2 11,7 8,9 0 0 4 2 N 1018,2 0,0
18.07.2018 01:00:00 12,8 12,0 9,1 0 0 4 2 N 1018,2 0,0
18.07.2018 00:00:00 13,3 12,0 10,8 4 2 4 2 ESE 1018,2 0,0
17.07.2018 23:00:00 14,3 11,9 11,2 0 0 11 6 N 1018,0 0,0
17.07.2018 22:00:00 17,0 12,3 15,0 7 4 18 10 WNW 1017,8 0,0
17.07.2018 21:00:00 19,6 12,0 19,4 14 8 25 14 WNW 1017,3 0,0
17.07.2018 20:00:00 20,8 11,7 21,5 18 10 32 18 WNW 1016,7 0,0
17.07.2018 19:00:00 21,5 12,3 23,1 25 14 43 23 WNW 1016,5 0,0
17.07.2018 18:00:00 23,1 11,5 25,3 29 16 43 23 W 1016,1 0,0
17.07.2018 17:00:00 24,2 13,4 26,3 29 16 40 21 W 1015,8 0,0
17.07.2018 16:00:00 24,0 14,2 27,7 25 14 43 23 W 1015,6 0,0
17.07.2018 15:00:00 25,7 14,7 26,8 18 10 36 19 W 1015,2 0,0
17.07.2018 14:00:00 25,7 15,4 30,0 18 10 36 19 W 1015,2 0,0
17.07.2018 13:00:00 25,3 15,4 28,7 22 12 32 18 W 1015,2 0,0
17.07.2018 12:00:00 23,6 16,4 26,3 18 10 29 16 W 1015,0 0,0
17.07.2018 11:00:00 22,8 16,6 26,1 22 12 29 16 WSW 1014,6 0,0
17.07.2018 10:00:00 21,6 15,7 23,7 18 10 25 14 WSW 1014,3 0,0
17.07.2018 09:00:00 20,7 14,9 21,9 14 8 18 10 W 1013,8 0,0
17.07.2018 08:00:00 19,8 15,0 19,8 11 6 18 10 WSW 1013,7 0,0
17.07.2018 07:00:00 17,1 16,0 15,5 4 2 7 4 SW 1013,3 0,0
17.07.2018 06:00:00 16,3 15,3 14,7 4 2 7 4 SSE 1013,1 0,0
17.07.2018 05:00:00 16,3 15,2 14,3 4 2 11 6 W 1013,0 0,0
17.07.2018 04:00:00 17,2 15,4 16,1 4 2 11 6 S 1012,8 0,0
17.07.2018 03:00:00 19,5 15,0 18,3 4 2 14 8 S 1012,8 0,0
17.07.2018 02:00:00 19,6 14,9 18,7 7 4 29 16 NE 1012,8 0,2
17.07.2018 01:00:00 20,0 14,8 18,6 11 6 22 12 WNW 1013,6 0,1
17.07.2018 00:00:00 21,2 14,5 20,9 14 8 29 16 W 1013,6 0,0
16.07.2018 23:00:00 21,7 15,0 21,1 18 10 29 16 W 1013,5 0,0
16.07.2018 22:00:00 23,4 12,5 19,7 7 4 11 6 ENE 1012,4 0,0
16.07.2018 21:00:00 25,5 14,3 24,5 4 2 11 6 NNE 1012,1 0,0
16.07.2018 20:00:00 27,6 11,8 27,8 7 4 22 12 NNE 1011,8 0,0
16.07.2018 19:00:00 28,5 10,8 30,8 7 4 22 12 N 1011,5 0,0
16.07.2018 18:00:00 28,6 11,5 31,0 7 4 22 12 NNW 1011,8 0,0
16.07.2018 17:00:00 29,4 11,7 33,5 7 4 22 12 NNW 1011,9 0,0
16.07.2018 16:00:00 28,5 12,5 30,7 11 6 14 8 WNW 1012,4 0,0
16.07.2018 15:00:00 28,9 9,6 32,4 7 4 18 10 NNW 1012,9 0,0
16.07.2018 14:00:00 28,2 10,0 32,5 7 4 14 8 WNW 1013,5 0,0
16.07.2018 13:00:00 27,8 11,0 31,5 7 4 18 10 NE 1013,7 0,0
16.07.2018 12:00:00 27,1 11,6 30,4 7 4 18 10 SE 1013,9 0,0
16.07.2018 11:00:00 25,8 11,5 29,4 11 6 14 8 E 1014,1 0,0
16.07.2018 10:00:00 24,4 13,3 27,1 7 4 14 8 ESE 1014,2 0,0
16.07.2018 09:00:00 21,8 13,4 23,2 11 6 18 10 E 1014,4 0,0
16.07.2018 08:00:00 18,9 13,5 19,9 7 4 11 6 E 1014,5 0,0
16.07.2018 07:00:00 16,6 12,4 15,2 7 4 7 4 E 1014,5 0,0
16.07.2018 06:00:00 15,2 11,4 12,8 7 4 11 6 E 1014,5 0,0
16.07.2018 05:00:00 15,8 11,4 13,3 7 4 11 6 E 1014,5 0,0
16.07.2018 04:00:00 17,1 11,1 14,5 7 4 11 6 E 1014,5 0,0
16.07.2018 03:00:00 16,2 11,2 12,9 11 6 11 6 E 1014,8 0,0
16.07.2018 02:00:00 15,5 11,6 11,6 4 2 11 6 ENE 1015,0 0,0
16.07.2018 01:00:00 15,3 13,5 11,5 4 2 7 4 NNE 1015,2 0,0
16.07.2018 00:00:00 17,3 13,1 12,4 4 2 4 2 NNE 1015,2 0,0
15.07.2018 23:00:00 17,6 13,7 14,4 0 0 11 6 N 1015,3 0,0
15.07.2018 22:00:00 20,7 12,2 17,8 7 4 11 6 N 1015,0 0,0
15.07.2018 21:00:00 24,3 12,5 22,5 4 2 18 10 NNE 1014,5 0,0
15.07.2018 20:00:00 26,7 12,9 27,9 11 6 22 12 NW 1014,3 0,0
15.07.2018 19:00:00 28,1 10,5 30,8 7 4 14 8 NW 1014,5 0,0
15.07.2018 18:00:00 28,2 11,4 31,7 4 2 14 8 NE 1014,9 0,0
15.07.2018 17:00:00 28,8 11,1 31,9 4 2 14 8 ESE 1015,4 0,0
15.07.2018 16:00:00 27,9 12,2 30,7 7 4 14 8 N 1015,7 0,0
15.07.2018 15:00:00 26,9 11,3 31,3 11 6 22 12 ENE 1016,3 0,0
15.07.2018 14:00:00 26,8 12,1 29,8 7 4 18 10 ENE 1017,0 0,0
15.07.2018 13:00:00 26,0 12,9 29,9 7 4 18 10 E 1017,5 0,0
15.07.2018 12:00:00 24,2 11,6 28,8 7 4 18 10 NE 1017,9 0,0
15.07.2018 11:00:00 23,6 13,1 27,2 11 6 14 8 E 1018,1 0,0
15.07.2018 10:00:00 21,9 13,4 25,1 7 4 14 8 E 1018,3 0,0
15.07.2018 09:00:00 19,5 13,5 21,4 11 6 14 8 E 1018,2 0,0
15.07.2018 08:00:00 17,4 13,0 18,5 7 4 14 8 E 1018,3 0,0
15.07.2018 07:00:00 15,1 12,4 14,2 4 2 7 4 ENE 1018,1 0,0
15.07.2018 06:00:00 12,7 11,5 10,8 4 2 7 4 NE 1018,1 0,0
15.07.2018 05:00:00 13,3 11,8 11,4 4 2 11 6 NE 1018,3 0,0
15.07.2018 04:00:00 14,2 11,8 12,7 7 4 11 6 E 1018,6 0,0
15.07.2018 03:00:00 15,9 12,3 14,5 7 4 14 8 NE 1018,9 0,0
15.07.2018 02:00:00 15,9 12,7 14,4 11 6 18 10 NE 1019,1 0,0
15.07.2018 01:00:00 15,8 13,4 13,9 7 4 11 6 NE 1019,2 0,0
15.07.2018 00:00:00 16,1 13,9 13,8 7 4 11 6 NNE 1019,1 0,0
14.07.2018 23:00:00 17,9 14,0 16,3 7 4 14 8 NNE 1019,2 0,0
14.07.2018 22:00:00 19,6 13,8 18,5 11 6 18 10 NNE 1018,9 0,0
14.07.2018 21:00:00 21,9 13,5 21,8 11 6 22 12 N 1018,7 0,0
14.07.2018 20:00:00 24,0 12,8 25,1 7 4 18 10 N 1018,6 0,0
14.07.2018 19:00:00 24,8 10,1 27,2 11 6 18 10 N 1018,9 0,0
14.07.2018 18:00:00 24,9 11,2 28,2 14 8 22 12 N 1019,1 0,0
14.07.2018 17:00:00 25,1 11,5 28,7 11 6 18 10 NNE 1019,1 0,0
14.07.2018 16:00:00 25,1 12,1 29,0 11 6 32 18 NE 1019,6 0,0
14.07.2018 15:00:00 24,4 11,4 28,6 11 6 22 12 NNE 1020,0 0,0
14.07.2018 14:00:00 24,0 11,3 28,2 11 6 18 10 NNW 1020,5 0,0
14.07.2018 13:00:00 22,9 12,6 27,0 7 4 18 10 NNE 1020,9 0,0
14.07.2018 12:00:00 21,9 13,1 25,3 7 4 14 8 N 1021,4 0,0
14.07.2018 11:00:00 20,3 12,9 24,6 7 4 18 10 N 1021,6 0,0
14.07.2018 10:00:00 18,9 13,0 22,3 7 4 14 8 NNE 1021,7 0,0
14.07.2018 09:00:00 17,7 12,8 20,1 11 6 14 8 NE 1021,9 0,0
14.07.2018 08:00:00 16,3 12,9 17,3 7 4 14 8 NE 1021,6 0,0
14.07.2018 07:00:00 13,9 12,3 13,5 7 4 11 6 N 1021,4 0,0
14.07.2018 06:00:00 12,6 11,5 11,6 7 4 11 6 N 1021,2 0,0
14.07.2018 05:00:00 12,7 11,8 11,4 7 4 11 6 N 1021,3 0,0
14.07.2018 04:00:00 13,4 12,2 11,4 4 2 11 6 ENE 1021,1 0,0
14.07.2018 03:00:00 13,5 12,3 12,0 4 2 11 6 NNE 1021,4 0,0
14.07.2018 02:00:00 14,5 12,6 13,4 7 4 11 6 NNE 1021,5 0,0
14.07.2018 01:00:00 15,6 13,2 14,3 7 4 14 8 N 1021,5 0,0
14.07.2018 00:00:00 16,0 13,6 14,8 7 4 18 10 N 1021,2 0,0
13.07.2018 23:00:00 17,2 13,4 16,1 7 4 22 12 N 1021,0 0,0
13.07.2018 22:00:00 18,7 13,4 17,6 7 4 18 10 NNE 1020,6 0,0
13.07.2018 21:00:00 20,7 13,7 20,5 11 6 22 12 N 1020,4 0,0
13.07.2018 20:00:00 22,4 13,9 23,3 14 8 22 12 N 1020,1 0,0
13.07.2018 19:00:00 23,4 13,7 24,6 7 4 18 10 N 1020,1 0,0
13.07.2018 18:00:00 24,7 12,6 28,5 11 6 22 12 N 1020,3 0,0
13.07.2018 17:00:00 24,5 13,1 28,7 11 6 22 12 NNW 1020,5 0,0
13.07.2018 16:00:00 24,5 13,4 27,3 7 4 18 10 N 1020,8 0,0
13.07.2018 15:00:00 23,8 12,7 29,0 7 4 14 8 N 1021,0 0,0

tt = Température de l'air
td = dewpoint
tt 5cm = Température de l'air 5cm
ff = Vitesse du vent
fx = gusts
dd = Direction du vent
ppp = reduced air pressure
rr = Quantités de précipitations

stations d'obs. à proximité